Time;durP1;ratioP1;P1;durP2;ratioP2;P2;SDS_P1;SDS_P2;PMS_P1;PMS_P2;Temp;Humidity;BMP_temperature;BMP_pressure;BME280_temperature;BME280_humidity;BME280_pressure;Samples;Min_cycle;Max_cycle;Signal;HPM_P1;HPM_P2
2022/04/26 03:38:03;;;;;;;23.67;16.85;;;;;;;;;;4994486;28;20284;-59
2022/04/26 03:40:30;;;;;;;23.75;16.35;;;;;;;;;;4994260;28;20202;-59
2022/04/26 03:42:57;;;;;;;20.58;16.67;;;;;;;;;;5032755;28;20238;-58
2022/04/26 03:45:25;;;;;;;20.27;17.13;;;;;;;;;;5074076;28;20588;-58
2022/04/26 03:47:52;;;;;;;20.77;16.88;;;;;;;;;;5074489;28;20234;-60
2022/04/26 03:50:36;;;;;;;21.33;16.50;;;;;;;;;;5074944;28;20283;-59
2022/04/26 03:53:04;;;;;;;21.52;16.00;;;;;;;;;;5075000;28;20224;-58
2022/04/26 03:55:31;;;;;;;20.10;16.17;;;;;;;;;;5074967;28;20207;-58
2022/04/26 03:57:59;;;;;;;18.40;15.90;;;;;;;;;;5074946;28;20475;-58
2022/04/26 04:00:26;;;;;;;18.55;14.32;;;;;;;;;;5075498;28;20257;-59
2022/04/26 04:02:54;;;;;;;20.38;14.65;;;;;;;;;;5075596;28;20203;-59
2022/04/26 04:05:22;;;;;;;18.83;14.82;;;;;;;;;;5075185;28;20264;-60
2022/04/26 04:07:49;;;;;;;17.77;13.40;;;;;;;;;;5065465;28;20224;-62
2022/04/26 04:10:16;;;;;;;18.40;14.73;;;;;;;;;;5073805;28;20280;-59
2022/04/26 04:12:43;;;;;;;21.50;14.70;;;;;;;;;;5073990;28;20223;-59
2022/04/26 04:15:10;;;;;;;18.38;14.35;;;;;;;;;;5073433;28;20266;-58
2022/04/26 04:17:37;;;;;;;18.58;14.85;;;;;;;;;;5062448;28;20250;-58
2022/04/26 04:20:05;;;;;;;17.20;13.68;;;;;;;;;;5060001;28;20226;-59
2022/04/26 04:22:38;;;;;;;18.42;13.32;;;;;;;;;;5061627;28;20220;-59
2022/04/26 04:25:05;;;;;;;14.98;12.60;;;;;;;;;;5064076;28;20215;-60
2022/04/26 04:27:33;;;;;;;16.98;12.98;;;;;;;;;;5073469;28;20230;-58
2022/04/26 04:30:02;;;;;;;19.23;13.05;;;;;;;;;;5074335;28;20262;-59
2022/04/26 04:32:29;;;;;;;17.13;13.27;;;;;;;;;;5056413;28;20234;-59
2022/04/26 04:34:59;;;;;;;16.33;13.00;;;;;;;;;;5067189;28;20228;-59
2022/04/26 04:37:26;;;;;;;18.48;13.70;;;;;;;;;;5068758;28;20219;-59
2022/04/26 04:39:53;;;;;;;18.45;12.80;;;;;;;;;;5073473;28;20272;-58
2022/04/26 04:42:21;;;;;;;16.45;12.95;;;;;;;;;;5072953;28;20242;-58
2022/04/26 04:44:49;;;;;;;16.08;13.18;;;;;;;;;;5072884;28;20296;-59
2022/04/26 04:47:16;;;;;;;16.10;12.40;;;;;;;;;;5073058;28;20238;-61
2022/04/26 04:49:43;;;;;;;16.42;12.93;;;;;;;;;;5069957;28;20230;-58
2022/04/26 04:52:10;;;;;;;15.75;12.90;;;;;;;;;;5057266;28;20243;-61
2022/04/26 04:54:37;;;;;;;18.13;13.27;;;;;;;;;;5070072;28;20233;-61
2022/04/26 04:57:05;;;;;;;16.55;13.30;;;;;;;;;;5072818;28;20285;-64
2022/04/26 04:59:32;;;;;;;17.83;13.77;;;;;;;;;;5073490;28;20223;-58
2022/04/26 05:02:00;;;;;;;16.63;13.45;;;;;;;;;;5073774;28;20286;-59
2022/04/26 05:04:28;;;;;;;17.95;14.43;;;;;;;;;;5073668;28;20269;-59
2022/04/26 05:06:56;;;;;;;18.67;14.35;;;;;;;;;;5069342;28;20235;-59
2022/04/26 05:09:23;;;;;;;20.70;13.75;;;;;;;;;;5060991;28;20215;-60
2022/04/26 05:11:52;;;;;;;16.63;13.82;;;;;;;;;;5054434;28;20220;-59
2022/04/26 05:14:19;;;;;;;15.95;13.13;;;;;;;;;;5052271;28;20566;-59
2022/04/26 05:16:47;;;;;;;14.38;12.27;;;;;;;;;;5057754;28;20270;-60
2022/04/26 05:19:14;;;;;;;13.57;11.52;;;;;;;;;;5054874;28;20215;-58
2022/04/26 05:21:41;;;;;;;16.58;12.07;;;;;;;;;;5066291;28;20562;-62
2022/04/26 05:26:54;;;;;;;15.68;11.73;;;;;;;;;;5058104;28;20232;-59
2022/04/26 05:29:21;;;;;;;16.50;12.95;;;;;;;;;;5069980;28;20259;-52
2022/04/26 05:31:49;;;;;;;18.13;12.13;;;;;;;;;;5073148;28;20227;-59
2022/04/26 05:34:16;;;;;;;14.93;12.25;;;;;;;;;;5073150;28;20239;-63
2022/04/26 05:36:43;;;;;;;15.60;12.18;;;;;;;;;;5073165;28;20224;-50
2022/04/26 05:39:10;;;;;;;15.90;12.27;;;;;;;;;;5073268;28;20249;-60
2022/04/26 05:41:43;;;;;;;14.20;11.38;;;;;;;;;;5073521;28;20219;-58
2022/04/26 05:44:10;;;;;;;13.80;11.05;;;;;;;;;;5072908;28;20219;-59
2022/04/26 05:46:37;;;;;;;16.33;12.05;;;;;;;;;;5074912;28;20231;-49
2022/04/26 05:49:05;;;;;;;15.60;10.98;;;;;;;;;;5076771;28;20661;-55
2022/04/26 05:51:32;;;;;;;15.18;12.30;;;;;;;;;;5076304;28;20262;-56
2022/04/26 05:53:59;;;;;;;18.90;12.65;;;;;;;;;;5076774;28;20326;-60
2022/04/26 05:56:26;;;;;;;16.00;11.88;;;;;;;;;;5076516;28;20227;-53
2022/04/26 05:58:53;;;;;;;14.10;12.15;;;;;;;;;;5076654;28;20223;-60
2022/04/26 06:01:20;;;;;;;16.77;13.07;;;;;;;;;;5075432;28;20234;-60
2022/04/26 06:03:48;;;;;;;16.70;12.45;;;;;;;;;;5076502;28;20227;-60
2022/04/26 06:06:15;;;;;;;15.98;13.13;;;;;;;;;;5075803;28;20704;-60
2022/04/26 06:08:42;;;;;;;20.17;13.40;;;;;;;;;;5076943;28;20223;-59
2022/04/26 06:11:15;;;;;;;15.98;13.25;;;;;;;;;;5076884;28;20227;-59
2022/04/26 06:13:42;;;;;;;15.80;13.38;;;;;;;;;;5076217;28;20215;-60
2022/04/26 06:16:09;;;;;;;15.77;13.23;;;;;;;;;;5074273;28;20682;-60
2022/04/26 06:18:37;;;;;;;17.25;12.63;;;;;;;;;;5076512;28;20246;-59
2022/04/26 06:21:05;;;;;;;14.98;13.43;;;;;;;;;;5075709;28;20227;-64
2022/04/26 06:23:33;;;;;;;18.90;15.73;;;;;;;;;;5055225;28;20262;-60
2022/04/26 06:26:02;;;;;;;18.27;15.73;;;;;;;;;;5056401;28;20227;-59
2022/04/26 06:28:29;;;;;;;17.85;14.68;;;;;;;;;;5056325;28;20231;-55
2022/04/26 06:50:05;;;;;;;18.45;15.95;;;;;;;;;;5115694;27;20570;-66
2022/04/26 06:52:33;;;;;;;16.60;14.90;;;;;;;;;;5076310;28;20226;-66
2022/04/26 06:55:00;;;;;;;16.88;14.82;;;;;;;;;;5085775;28;20226;-62
2022/04/26 06:57:27;;;;;;;18.95;15.82;;;;;;;;;;5091136;28;20229;-66
2022/04/26 06:59:54;;;;;;;17.98;15.90;;;;;;;;;;5091020;28;20222;-66
2022/04/26 07:02:22;;;;;;;18.85;15.38;;;;;;;;;;5091039;28;20718;-64
2022/04/26 07:04:49;;;;;;;19.60;16.25;;;;;;;;;;5090567;28;20226;-64
2022/04/26 07:07:17;;;;;;;18.42;16.25;;;;;;;;;;5090935;28;20226;-70
2022/04/26 07:09:44;;;;;;;17.80;15.77;;;;;;;;;;5090222;28;20226;-65
2022/04/26 07:12:11;;;;;;;18.60;15.40;;;;;;;;;;5090878;28;20246;-65
2022/04/26 07:14:38;;;;;;;17.00;15.20;;;;;;;;;;5090409;28;20554;-64
2022/04/26 07:17:05;;;;;;;18.40;14.32;;;;;;;;;;5090350;28;20246;-63
2022/04/26 07:19:36;;;;;;;17.02;14.40;;;;;;;;;;5089382;28;20234;-63
2022/04/26 07:22:23;;;;;;;17.35;15.32;;;;;;;;;;5090163;28;20234;-66
2022/04/26 07:24:50;;;;;;;16.30;14.23;;;;;;;;;;5075781;28;20235;-64
2022/04/26 07:27:18;;;;;;;16.27;13.75;;;;;;;;;;5070269;28;20223;-64
2022/04/26 07:29:49;;;;;;;19.88;15.85;;;;;;;;;;5069926;28;20235;-66
2022/04/26 07:32:16;;;;;;;17.05;14.93;;;;;;;;;;5070616;28;20232;-65
2022/04/26 07:34:45;;;;;;;16.58;13.77;;;;;;;;;;5069833;28;20240;-66
2022/04/26 07:37:12;;;;;;;17.38;13.90;;;;;;;;;;5069904;28;20227;-67
2022/04/26 07:39:39;;;;;;;18.60;12.32;;;;;;;;;;5069603;28;20239;-65
2022/04/26 07:42:07;;;;;;;16.35;13.75;;;;;;;;;;5070492;28;20268;-64
2022/04/26 07:44:35;;;;;;;17.95;13.52;;;;;;;;;;5069683;28;20227;-65
2022/04/26 07:47:05;;;;;;;13.85;11.98;;;;;;;;;;5070103;28;20223;-73
2022/04/26 07:49:32;;;;;;;13.93;12.30;;;;;;;;;;5064558;28;20246;-65
2022/04/26 07:52:00;;;;;;;14.48;12.68;;;;;;;;;;5057000;28;20282;-59
2022/04/26 07:54:27;;;;;;;15.43;12.40;;;;;;;;;;5067140;28;20547;-67
2022/04/26 07:56:55;;;;;;;15.82;12.18;;;;;;;;;;5076867;28;20602;-70
2022/04/26 07:59:22;;;;;;;12.45;10.90;;;;;;;;;;5076382;28;20250;-61
2022/04/26 08:01:49;;;;;;;11.43;9.73;;;;;;;;;;5076635;28;20219;-63
2022/04/26 08:04:17;;;;;;;11.45;9.93;;;;;;;;;;5076299;28;20235;-67
2022/04/26 08:06:44;;;;;;;11.77;10.55;;;;;;;;;;5076474;28;20227;-67
2022/04/26 08:13:42;;;;;;;12.82;10.73;;;;;;;;;;5076213;28;20226;-61
2022/04/26 08:16:16;;;;;;;14.23;11.63;;;;;;;;;;5076366;28;20296;-62
2022/04/26 08:18:44;;;;;;;11.43;10.10;;;;;;;;;;5076278;28;20329;-66
2022/04/26 08:21:14;;;;;;;12.30;9.63;;;;;;;;;;5076405;28;20227;-62
2022/04/26 08:29:14;;;;;;;11.30;10.20;;;;;;;;;;5056507;28;20740;-63
2022/04/26 08:31:42;;;;;;;12.10;10.75;;;;;;;;;;5054768;28;20262;-67
2022/04/26 08:34:09;;;;;;;11.75;9.95;;;;;;;;;;5056046;28;20228;-67
2022/04/26 08:36:38;;;;;;;11.60;10.38;;;;;;;;;;5055229;28;20216;-68
2022/04/26 08:39:05;;;;;;;11.65;9.20;;;;;;;;;;5055906;28;20227;-69
2022/04/26 08:41:34;;;;;;;11.48;10.10;;;;;;;;;;5055566;28;20319;-61
2022/04/26 08:44:07;;;;;;;12.65;9.32;;;;;;;;;;5056171;28;20223;-68
2022/04/26 08:52:08;;;;;;;13.40;10.27;;;;;;;;;;5075782;28;20665;-66
2022/04/26 08:54:35;;;;;;;11.63;9.05;;;;;;;;;;5075625;28;20282;-65
2022/04/26 08:57:09;;;;;;;9.38;8.45;;;;;;;;;;5076472;28;20247;-66
2022/04/26 08:59:52;;;;;;;10.18;8.15;;;;;;;;;;5076246;28;20223;-66
2022/04/26 09:02:23;;;;;;;10.80;9.32;;;;;;;;;;5075416;28;20203;-66
2022/04/26 09:04:51;;;;;;;13.05;10.25;;;;;;;;;;5076341;28;20214;-67
2022/04/26 09:07:33;;;;;;;12.50;11.20;;;;;;;;;;5076103;28;20637;-66
2022/04/26 09:10:04;;;;;;;13.85;9.88;;;;;;;;;;5075911;28;20202;-66
2022/04/26 09:12:33;;;;;;;11.43;9.98;;;;;;;;;;5075860;28;20198;-67
2022/04/26 09:15:14;;;;;;;11.40;10.10;;;;;;;;;;5074932;28;20286;-66
2022/04/26 09:17:41;;;;;;;10.98;9.60;;;;;;;;;;5075914;28;20199;-66
2022/04/26 09:20:09;;;;;;;15.27;10.45;;;;;;;;;;5075720;28;20748;-66
2022/04/26 09:22:38;;;;;;;11.57;10.05;;;;;;;;;;5075014;28;20202;-64
2022/04/26 09:25:07;;;;;;;11.82;9.32;;;;;;;;;;5075611;28;20253;-69
2022/04/26 09:27:37;;;;;;;12.00;9.45;;;;;;;;;;5075829;28;20233;-69
2022/04/26 09:30:12;;;;;;;14.85;9.13;;;;;;;;;;5075527;28;20268;-69
2022/04/26 09:32:44;;;;;;;11.10;9.60;;;;;;;;;;5065888;28;20191;-69
2022/04/26 09:35:29;;;;;;;11.95;9.23;;;;;;;;;;5055442;28;20200;-67
2022/04/26 09:37:56;;;;;;;13.93;11.60;;;;;;;;;;5056071;28;20215;-69
2022/04/26 09:40:28;;;;;;;12.27;10.70;;;;;;;;;;5055275;28;20204;-68
2022/04/26 09:42:56;;;;;;;13.48;11.13;;;;;;;;;;5055575;28;20212;-69
2022/04/26 09:45:23;;;;;;;14.38;11.52;;;;;;;;;;5054345;28;20200;-69
2022/04/26 09:47:51;;;;;;;14.95;12.40;;;;;;;;;;5054938;28;20626;-68
2022/04/26 09:50:18;;;;;;;12.55;10.82;;;;;;;;;;5054425;28;20261;-69
2022/04/26 09:52:45;;;;;;;13.10;11.75;;;;;;;;;;5055390;28;20207;-68
2022/04/26 09:55:15;;;;;;;15.32;12.02;;;;;;;;;;5055520;28;20204;-69
2022/04/26 09:57:44;;;;;;;16.23;14.52;;;;;;;;;;5054960;28;20195;-69
2022/04/26 10:00:12;;;;;;;18.58;15.48;;;;;;;;;;5054973;28;20227;-71
2022/04/26 10:02:51;;;;;;;15.55;13.35;;;;;;;;;;5055275;28;20207;-69
2022/04/26 10:05:21;;;;;;;18.00;14.18;;;;;;;;;;5054422;28;20204;-69
2022/04/26 10:07:49;;;;;;;16.80;12.23;;;;;;;;;;5055105;28;20195;-69
2022/04/26 10:10:20;;;;;;;14.02;11.73;;;;;;;;;;5054696;28;20254;-68
2022/04/26 10:15:35;;;;;;;16.27;13.85;;;;;;;;;;5054356;28;20530;-70
2022/04/26 10:18:25;;;;;;;13.30;11.85;;;;;;;;;;5054770;28;20258;-70
2022/04/26 10:20:53;;;;;;;11.88;8.77;;;;;;;;;;5054979;28;20207;-70
2022/04/26 10:23:20;;;;;;;10.05;8.00;;;;;;;;;;5054287;28;20345;-68
2022/04/26 10:26:11;;;;;;;6.68;5.97;;;;;;;;;;5054674;28;20286;-70
2022/04/26 10:28:57;;;;;;;6.80;5.75;;;;;;;;;;5054651;28;20637;-67
2022/04/26 10:31:39;;;;;;;8.43;7.18;;;;;;;;;;5056180;28;20188;-70
2022/04/26 10:34:24;;;;;;;9.07;6.28;;;;;;;;;;5054614;28;20215;-70
2022/04/26 10:36:52;;;;;;;7.53;6.72;;;;;;;;;;5054517;28;20204;-71
2022/04/26 10:39:39;;;;;;;8.35;7.45;;;;;;;;;;5054684;28;20224;-68
2022/04/26 10:42:10;;;;;;;10.95;9.25;;;;;;;;;;5055392;28;20223;-70
2022/04/26 10:44:42;;;;;;;7.20;6.50;;;;;;;;;;5054544;28;20207;-70
2022/04/26 10:47:09;;;;;;;10.25;7.55;;;;;;;;;;5054862;28;20231;-70
2022/04/26 10:49:39;;;;;;;9.38;7.82;;;;;;;;;;5054297;28;20685;-69
2022/04/26 10:52:25;;;;;;;9.35;7.80;;;;;;;;;;5054641;28;20219;-70
2022/04/26 10:54:55;;;;;;;6.57;5.63;;;;;;;;;;5054944;28;20234;-70
2022/04/26 10:57:27;;;;;;;9.27;6.45;;;;;;;;;;5054539;28;20638;-70
2022/04/26 11:00:01;;;;;;;12.65;7.75;;;;;;;;;;5054754;28;20208;-74
2022/04/26 11:02:35;;;;;;;7.28;6.00;;;;;;;;;;5054532;28;20208;-71
2022/04/26 11:05:10;;;;;;;9.85;8.43;;;;;;;;;;5053787;28;20196;-71
2022/04/26 11:07:48;;;;;;;11.15;8.80;;;;;;;;;;5054369;28;20226;-70
2022/04/26 11:10:27;;;;;;;11.52;9.30;;;;;;;;;;5047273;28;20314;-69
2022/04/26 11:12:58;;;;;;;12.70;10.10;;;;;;;;;;5061600;28;20231;-67
2022/04/26 11:15:25;;;;;;;11.68;9.25;;;;;;;;;;5073759;28;20238;-66
2022/04/26 11:17:54;;;;;;;12.05;10.05;;;;;;;;;;5073700;28;20224;-71
2022/04/26 11:20:24;;;;;;;11.07;9.05;;;;;;;;;;5073181;28;20250;-70
2022/04/26 11:22:56;;;;;;;11.48;9.98;;;;;;;;;;5073755;28;20220;-72
2022/04/26 11:28:17;;;;;;;11.88;10.63;;;;;;;;;;5077983;28;20203;-70
2022/04/26 11:30:55;;;;;;;12.63;10.35;;;;;;;;;;5078099;28;20234;-71
2022/04/26 11:33:24;;;;;;;12.57;10.25;;;;;;;;;;5078470;28;20231;-71
2022/04/26 11:35:53;;;;;;;12.07;10.65;;;;;;;;;;5077649;28;20199;-72
2022/04/26 11:38:22;;;;;;;14.40;12.90;;;;;;;;;;5077723;28;20621;-74
2022/04/26 11:40:58;;;;;;;15.38;11.65;;;;;;;;;;5077466;28;20219;-70
2022/04/26 11:43:31;;;;;;;13.57;10.82;;;;;;;;;;5077529;28;20203;-71
2022/04/26 11:45:58;;;;;;;12.43;10.77;;;;;;;;;;5078056;28;20203;-70
2022/04/26 11:48:29;;;;;;;13.15;11.00;;;;;;;;;;5077441;28;20227;-68
2022/04/26 11:50:58;;;;;;;13.70;11.65;;;;;;;;;;5070501;28;20214;-65
2022/04/26 11:53:30;;;;;;;13.25;10.35;;;;;;;;;;5049728;28;20220;-71
2022/04/26 11:56:02;;;;;;;9.85;8.13;;;;;;;;;;5056273;28;20227;-69
2022/04/26 11:58:29;;;;;;;10.18;8.05;;;;;;;;;;5066474;28;20307;-68
2022/04/26 12:01:07;;;;;;;9.38;8.30;;;;;;;;;;5064229;28;20243;-69
2022/04/26 12:03:56;;;;;;;9.65;7.82;;;;;;;;;;5055449;28;20662;-68
2022/04/26 12:06:29;;;;;;;10.43;8.52;;;;;;;;;;5050067;28;20243;-70
2022/04/26 12:08:58;;;;;;;7.55;5.82;;;;;;;;;;5050114;28;20224;-70
2022/04/26 12:11:35;;;;;;;9.20;6.80;;;;;;;;;;5055452;28;20227;-71
2022/04/26 12:14:17;;;;;;;9.32;8.23;;;;;;;;;;5054976;28;20211;-70
2022/04/26 12:16:47;;;;;;;9.93;8.55;;;;;;;;;;5052623;28;20223;-71
2022/04/26 12:19:14;;;;;;;9.55;8.45;;;;;;;;;;5055683;28;20224;-68
2022/04/26 12:21:45;;;;;;;11.52;9.73;;;;;;;;;;5055376;28;20228;-73
2022/04/26 12:24:16;;;;;;;10.63;8.35;;;;;;;;;;5055166;28;20234;-70
2022/04/26 12:27:00;;;;;;;9.57;8.57;;;;;;;;;;5056144;28;20220;-66
2022/04/26 12:29:39;;;;;;;10.48;9.38;;;;;;;;;;5054966;28;20224;-71
2022/04/26 12:32:15;;;;;;;11.52;9.57;;;;;;;;;;5051497;28;20224;-73
2022/04/26 12:34:46;;;;;;;12.00;9.55;;;;;;;;;;5054427;28;20661;-69
2022/04/26 12:37:23;;;;;;;11.40;9.57;;;;;;;;;;5055880;28;20239;-68
2022/04/26 12:39:53;;;;;;;10.90;9.13;;;;;;;;;;5053737;28;20228;-71
2022/04/26 12:42:27;;;;;;;9.40;8.40;;;;;;;;;;5055197;28;20212;-68
2022/04/26 12:44:56;;;;;;;12.20;8.45;;;;;;;;;;5055814;28;20250;-69
2022/04/26 12:50:29;;;;;;;11.57;8.02;;;;;;;;;;5056046;28;20672;-69
2022/04/26 12:53:05;;;;;;;9.52;7.82;;;;;;;;;;5047021;28;20224;-71
2022/04/26 12:55:43;;;;;;;11.95;7.88;;;;;;;;;;5050448;28;20223;-72
2022/04/26 12:58:12;;;;;;;10.25;8.35;;;;;;;;;;5055189;28;20290;-72
2022/04/26 13:00:40;;;;;;;10.10;7.93;;;;;;;;;;5056546;28;20682;-70
2022/04/26 13:03:08;;;;;;;9.15;7.60;;;;;;;;;;5052329;28;20212;-71
2022/04/26 13:05:44;;;;;;;8.60;7.70;;;;;;;;;;5054382;28;20220;-71
2022/04/26 13:08:14;;;;;;;7.82;7.03;;;;;;;;;;5062122;28;20242;-72
2022/04/26 13:10:42;;;;;;;9.60;7.95;;;;;;;;;;5053912;28;20220;-67
2022/04/26 13:13:10;;;;;;;7.97;7.03;;;;;;;;;;5054421;28;20553;-65
2022/04/26 13:15:37;;;;;;;7.43;6.57;;;;;;;;;;5054366;28;20274;-67
2022/04/26 13:18:05;;;;;;;9.35;6.75;;;;;;;;;;5054637;28;20301;-68
2022/04/26 13:20:33;;;;;;;8.57;6.65;;;;;;;;;;5053874;28;20228;-67
2022/04/26 13:23:00;;;;;;;7.00;4.90;;;;;;;;;;5054248;28;20212;-67
2022/04/26 13:25:28;;;;;;;5.78;5.20;;;;;;;;;;5054748;28;20274;-63
2022/04/26 13:27:56;;;;;;;8.63;6.30;;;;;;;;;;5054490;28;20212;-62
2022/04/26 13:30:24;;;;;;;6.28;5.68;;;;;;;;;;5051840;28;20289;-71
2022/04/26 13:32:52;;;;;;;8.60;7.05;;;;;;;;;;5054305;28;20616;-66
2022/04/26 13:35:19;;;;;;;8.05;7.25;;;;;;;;;;5053549;28;20258;-67
2022/04/26 13:37:47;;;;;;;7.30;6.00;;;;;;;;;;5055994;28;20777;-65
2022/04/26 13:40:14;;;;;;;8.02;6.15;;;;;;;;;;5054128;28;20247;-64
2022/04/26 13:42:41;;;;;;;8.95;6.30;;;;;;;;;;5054011;28;20230;-64
2022/04/26 13:45:09;;;;;;;7.03;6.15;;;;;;;;;;5054204;28;20227;-72
2022/04/26 13:47:38;;;;;;;6.85;6.15;;;;;;;;;;5053239;28;20226;-71
2022/04/26 13:50:07;;;;;;;5.85;5.25;;;;;;;;;;5053766;28;20220;-72
2022/04/26 13:52:34;;;;;;;6.88;4.80;;;;;;;;;;5051425;28;20227;-71
2022/04/26 13:55:01;;;;;;;6.75;5.05;;;;;;;;;;5053935;28;20234;-70
2022/04/26 13:57:29;;;;;;;7.15;5.50;;;;;;;;;;5053546;28;20275;-71
2022/04/26 13:59:56;;;;;;;6.25;4.65;;;;;;;;;;5054443;28;20227;-68
2022/04/26 14:02:23;;;;;;;6.43;5.45;;;;;;;;;;5054627;28;20243;-72
2022/04/26 14:04:50;;;;;;;6.32;5.65;;;;;;;;;;5054021;28;20564;-69
2022/04/26 14:07:18;;;;;;;5.95;5.32;;;;;;;;;;5061874;28;20586;-70
2022/04/26 14:09:45;;;;;;;6.82;5.55;;;;;;;;;;5074443;28;20556;-74
2022/04/26 14:12:14;;;;;;;8.65;6.03;;;;;;;;;;5074094;28;20310;-70
2022/04/26 14:22:59;;;;;;;9.73;6.85;;;;;;;;;;5074315;28;20223;-69
2022/04/26 14:25:26;;;;;;;7.90;6.90;;;;;;;;;;5074061;28;20273;-71
2022/04/26 14:27:54;;;;;;;7.93;5.90;;;;;;;;;;5073932;28;20543;-70
2022/04/26 14:30:21;;;;;;;7.57;6.72;;;;;;;;;;5074109;28;20231;-61
2022/04/26 14:33:08;;;;;;;7.05;5.60;;;;;;;;;;5073967;28;20223;-68
2022/04/26 14:35:35;;;;;;;8.70;6.05;;;;;;;;;;5073209;28;20225;-63
2022/04/26 14:38:04;;;;;;;6.85;5.78;;;;;;;;;;5074160;28;20223;-64
2022/04/26 14:40:32;;;;;;;6.90;6.13;;;;;;;;;;5065015;28;20596;-68
2022/04/26 14:43:05;;;;;;;10.57;6.63;;;;;;;;;;5053112;28;20248;-63
2022/04/26 14:45:33;;;;;;;7.22;6.25;;;;;;;;;;5052757;28;20281;-64
2022/04/26 14:48:00;;;;;;;8.02;6.07;;;;;;;;;;5052696;28;20721;-60
2022/04/26 14:50:30;;;;;;;7.50;6.38;;;;;;;;;;5052345;28;20220;-58
2022/04/26 14:52:57;;;;;;;7.53;6.20;;;;;;;;;;5053716;28;20696;-70
2022/04/26 14:55:24;;;;;;;10.95;7.88;;;;;;;;;;5053410;28;20227;-59
2022/04/26 14:57:53;;;;;;;10.13;7.15;;;;;;;;;;5052753;28;20293;-60
2022/04/26 15:00:20;;;;;;;9.45;6.85;;;;;;;;;;5055552;28;20254;-63
2022/04/26 15:02:48;;;;;;;7.47;6.20;;;;;;;;;;5057589;28;20232;-68
2022/04/26 15:05:15;;;;;;;6.97;5.97;;;;;;;;;;5057159;28;20232;-72
2022/04/26 15:10:28;;;;;;;13.23;9.75;;;;;;;;;;5077348;28;20597;-59
2022/04/26 15:18:28;;;;;;;10.88;7.45;;;;;;;;;;5077668;28;20223;-66
2022/04/26 15:20:55;;;;;;;9.00;7.57;;;;;;;;;;5076734;28;20234;-68
2022/04/26 15:23:22;;;;;;;10.50;7.50;;;;;;;;;;5077363;28;20306;-68
2022/04/26 15:25:55;;;;;;;10.65;7.95;;;;;;;;;;5076911;28;20589;-73
2022/04/26 15:28:23;;;;;;;10.75;8.35;;;;;;;;;;5077703;28;20219;-67
2022/04/26 15:30:51;;;;;;;9.43;7.57;;;;;;;;;;5076880;28;20277;-60
2022/04/26 15:33:19;;;;;;;10.15;7.35;;;;;;;;;;5077191;28;20231;-75
2022/04/26 15:35:46;;;;;;;9.82;8.05;;;;;;;;;;5076433;28;20569;-70
2022/04/26 15:38:14;;;;;;;12.45;8.40;;;;;;;;;;5077223;28;20696;-69
2022/04/26 15:40:44;;;;;;;10.60;8.38;;;;;;;;;;5076514;28;20245;-65
2022/04/26 15:43:12;;;;;;;12.60;9.38;;;;;;;;;;5077384;28;20670;-65
2022/04/26 15:45:39;;;;;;;9.43;8.13;;;;;;;;;;5052776;28;20559;-66
2022/04/26 15:48:06;;;;;;;7.47;5.85;;;;;;;;;;5055812;28;20366;-67
2022/04/26 15:50:34;;;;;;;7.03;5.25;;;;;;;;;;5055154;28;20224;-65
2022/04/26 15:53:01;;;;;;;8.30;5.90;;;;;;;;;;5055770;28;20216;-66
2022/04/26 15:55:34;;;;;;;8.82;6.38;;;;;;;;;;5055404;28;20226;-64
2022/04/26 15:58:02;;;;;;;7.78;6.30;;;;;;;;;;5056641;28;20216;-67
2022/04/26 16:00:29;;;;;;;7.07;5.45;;;;;;;;;;5055988;28;20573;-63
2022/04/26 16:02:57;;;;;;;7.72;5.95;;;;;;;;;;5056018;28;20219;-64
2022/04/26 16:05:25;;;;;;;10.30;7.65;;;;;;;;;;5056083;28;20220;-66
2022/04/26 16:07:52;;;;;;;12.73;8.60;;;;;;;;;;5055698;28;20220;-62
2022/04/26 16:21:25;;;;;;;19.75;13.38;;;;;;;;;;5050864;28;20234;-69
2022/04/26 16:23:57;;;;;;;14.88;12.27;;;;;;;;;;5051185;28;20262;-64
2022/04/26 16:26:25;;;;;;;15.40;12.07;;;;;;;;;;5054908;28;20723;-66
2022/04/26 16:28:52;;;;;;;17.05;12.07;;;;;;;;;;5054203;28;20220;-63
2022/04/26 16:31:27;;;;;;;19.55;13.05;;;;;;;;;;5052226;28;20224;-71
2022/04/26 16:33:56;;;;;;;19.80;14.90;;;;;;;;;;5053064;28;20274;-64
2022/04/26 16:36:25;;;;;;;20.63;14.93;;;;;;;;;;5052324;28;20223;-64
2022/04/26 16:38:52;;;;;;;20.35;15.57;;;;;;;;;;5053265;28;20322;-61
2022/04/26 16:41:20;;;;;;;22.02;15.48;;;;;;;;;;5055208;28;20243;-64
2022/04/26 16:43:49;;;;;;;20.98;16.00;;;;;;;;;;5055616;28;20625;-69
2022/04/26 16:46:17;;;;;;;20.75;14.15;;;;;;;;;;5055468;28;20235;-60
2022/04/26 16:48:45;;;;;;;22.45;17.40;;;;;;;;;;5055255;28;20243;-64
2022/04/26 16:51:15;;;;;;;22.25;16.58;;;;;;;;;;5055218;28;20212;-64
2022/04/26 16:53:44;;;;;;;25.23;17.05;;;;;;;;;;5054757;28;20223;-64
2022/04/26 16:56:11;;;;;;;29.02;18.65;;;;;;;;;;5054273;28;20223;-66
2022/04/26 16:58:38;;;;;;;28.75;20.70;;;;;;;;;;5053871;28;20216;-67
2022/04/26 17:01:06;;;;;;;24.38;16.13;;;;;;;;;;5052607;28;20326;-64
2022/04/26 17:03:33;;;;;;;18.70;14.73;;;;;;;;;;5053129;28;20234;-61
2022/04/26 17:06:01;;;;;;;20.85;15.20;;;;;;;;;;5050898;28;20687;-62
2022/04/26 17:08:28;;;;;;;20.27;14.38;;;;;;;;;;5054748;28;20658;-65
2022/04/26 17:11:41;;;;;;;15.55;12.18;;;;;;;;;;5053290;28;20627;-65
2022/04/26 17:13:45;;;;;;;15.52;11.75;;;;;;;;;;5052736;28;20685;-67
2022/04/26 17:16:13;;;;;;;16.60;12.80;;;;;;;;;;5054421;28;20238;-64
2022/04/26 17:18:41;;;;;;;21.45;13.57;;;;;;;;;;5053894;28;20227;-68
2022/04/26 17:21:09;;;;;;;21.05;14.77;;;;;;;;;;5054912;28;20255;-68
2022/04/26 17:23:36;;;;;;;17.27;13.13;;;;;;;;;;5053034;28;20232;-68
2022/04/26 17:26:04;;;;;;;15.75;11.45;;;;;;;;;;5054938;28;20670;-65
2022/04/26 17:28:31;;;;;;;17.73;12.27;;;;;;;;;;5054511;28;20718;-66
2022/04/26 17:30:58;;;;;;;14.45;11.05;;;;;;;;;;5054930;28;20247;-62
2022/04/26 17:33:26;;;;;;;17.67;12.52;;;;;;;;;;5054066;28;20616;-67
2022/04/26 17:35:53;;;;;;;18.23;12.68;;;;;;;;;;5054662;28;20238;-65
2022/04/26 17:38:20;;;;;;;13.55;9.77;;;;;;;;;;5070368;28;20235;-65
2022/04/26 17:40:47;;;;;;;12.70;9.55;;;;;;;;;;5074668;28;20239;-69
2022/04/26 17:43:15;;;;;;;13.57;9.82;;;;;;;;;;5074439;28;20231;-68
2022/04/26 17:45:46;;;;;;;15.57;11.10;;;;;;;;;;5074766;28;20231;-69
2022/04/26 17:48:14;;;;;;;16.67;10.90;;;;;;;;;;5073830;28;20687;-66
2022/04/26 17:50:45;;;;;;;13.00;9.27;;;;;;;;;;5074107;28;20234;-68
2022/04/26 17:58:48;;;;;;;13.18;8.90;;;;;;;;;;5052710;28;20572;-68
2022/04/26 18:01:16;;;;;;;11.68;8.35;;;;;;;;;;5052520;28;20277;-66
2022/04/26 18:03:44;;;;;;;23.73;18.33;;;;;;;;;;5051945;28;20224;-63
2022/04/26 18:06:11;;;;;;;12.00;8.18;;;;;;;;;;5051475;28;20289;-69
2022/04/26 18:08:38;;;;;;;10.48;8.10;;;;;;;;;;5052662;28;20540;-69
2022/04/26 18:11:06;;;;;;;12.77;9.23;;;;;;;;;;5054194;28;20226;-67
2022/04/26 18:13:34;;;;;;;25.05;16.67;;;;;;;;;;5052382;28;20246;-70
2022/04/26 18:16:02;;;;;;;19.70;12.90;;;;;;;;;;5052793;28;20301;-70
2022/04/26 18:18:30;;;;;;;20.23;13.50;;;;;;;;;;5051567;28;20220;-72
2022/04/26 18:20:58;;;;;;;18.67;12.55;;;;;;;;;;5052074;28;20345;-71
2022/04/26 18:23:29;;;;;;;23.85;14.48;;;;;;;;;;5052139;28;20232;-69
2022/04/26 18:26:12;;;;;;;21.33;13.60;;;;;;;;;;5052425;28;20248;-70
2022/04/26 18:28:45;;;;;;;24.88;17.75;;;;;;;;;;5053163;28;20265;-70
2022/04/26 18:31:15;;;;;;;77.78;44.72;;;;;;;;;;5053962;28;20238;-72
2022/04/26 18:33:43;;;;;;;32.90;18.98;;;;;;;;;;5052831;28;20231;-73
2022/04/26 18:36:13;;;;;;;31.40;17.58;;;;;;;;;;5053919;28;20583;-70
2022/04/26 18:38:44;;;;;;;29.23;20.40;;;;;;;;;;5072124;28;20322;-68
2022/04/26 18:41:12;;;;;;;33.33;23.45;;;;;;;;;;5073672;28;20328;-68
2022/04/26 18:43:39;;;;;;;21.88;15.65;;;;;;;;;;5068870;28;20719;-69
2022/04/26 18:46:07;;;;;;;19.65;14.23;;;;;;;;;;5048264;28;20254;-65
2022/04/26 18:48:37;;;;;;;20.13;14.13;;;;;;;;;;5051341;28;20682;-65
2022/04/26 18:51:05;;;;;;;37.50;23.52;;;;;;;;;;5052396;28;20299;-73
2022/04/26 18:53:32;;;;;;;27.50;19.40;;;;;;;;;;5051972;28;20236;-67
2022/04/26 18:56:00;;;;;;;26.00;18.00;;;;;;;;;;5050219;28;20230;-71
2022/04/26 18:58:27;;;;;;;40.45;25.13;;;;;;;;;;5047179;28;20258;-69
2022/04/26 19:00:59;;;;;;;39.28;25.63;;;;;;;;;;5052583;28;20228;-69
2022/04/26 19:03:28;;;;;;;68.95;40.67;;;;;;;;;;5051539;28;20704;-69
2022/04/26 19:06:05;;;;;;;39.08;26.10;;;;;;;;;;5048884;28;20303;-70
2022/04/26 19:08:33;;;;;;;41.67;27.25;;;;;;;;;;5052618;28;20327;-71
2022/04/26 19:13:46;;;;;;;22.35;16.85;;;;;;;;;;5052006;28;20232;-70
2022/04/26 19:16:13;;;;;;;19.48;14.65;;;;;;;;;;5052212;28;20247;-71
2022/04/26 19:18:40;;;;;;;20.65;15.10;;;;;;;;;;5050405;28;20236;-70
2022/04/26 19:21:08;;;;;;;22.10;16.55;;;;;;;;;;5050088;28;20227;-67
2022/04/26 19:23:35;;;;;;;23.08;15.65;;;;;;;;;;5053134;28;20310;-65
2022/04/26 19:26:03;;;;;;;25.88;17.85;;;;;;;;;;5052474;28;20666;-68
2022/04/26 19:28:31;;;;;;;28.55;20.23;;;;;;;;;;5051629;28;20640;-70
2022/04/26 19:30:58;;;;;;;27.67;20.98;;;;;;;;;;5051845;28;20203;-66
2022/04/26 19:33:25;;;;;;;33.58;27.30;;;;;;;;;;5052963;28;20277;-69
2022/04/26 19:35:53;;;;;;;32.20;24.27;;;;;;;;;;5051118;28;20208;-66
2022/04/26 19:38:23;;;;;;;32.35;22.83;;;;;;;;;;5052691;28;20595;-68